createdAt,value
2023-03-04T00:01:21.921Z,6.17
2023-03-04T00:04:25.949Z,6.08
2023-03-04T00:07:28.515Z,6.13
2023-03-04T00:10:31.130Z,6.02
2023-03-04T00:13:33.790Z,6.14
2023-03-04T00:16:36.439Z,6.09
2023-03-04T00:19:40.447Z,6.16
2023-03-04T00:22:43.068Z,5.98
2023-03-04T00:25:45.648Z,6.04
2023-03-04T00:28:48.267Z,6.19
2023-03-04T00:31:50.866Z,5.96
2023-03-04T00:34:54.856Z,6.07
2023-03-04T00:37:57.505Z,6.08
2023-03-04T00:41:00.105Z,6.10
2023-03-04T00:44:02.712Z,6.18
2023-03-04T00:47:05.457Z,6.13
2023-03-04T00:50:11.204Z,6.12
2023-03-04T00:53:13.851Z,6.18
2023-03-04T00:56:16.419Z,6.18
2023-03-04T00:59:19.006Z,6.12
2023-03-04T01:02:21.703Z,6.12
2023-03-04T01:05:25.689Z,6.30
2023-03-04T01:08:28.346Z,6.24
2023-03-04T01:11:30.959Z,6.17
2023-03-04T01:14:33.662Z,6.29
2023-03-04T01:17:36.495Z,6.31
2023-03-04T01:20:40.468Z,6.30
2023-03-04T01:23:43.078Z,6.36
2023-03-04T01:26:45.727Z,6.23
2023-03-04T01:29:48.341Z,6.28
2023-03-04T01:32:50.950Z,6.35
2023-03-04T01:35:54.905Z,6.37
2023-03-04T01:38:57.609Z,6.31
2023-03-04T01:42:00.328Z,6.38
2023-03-04T01:45:03.891Z,6.34
2023-03-04T01:48:06.662Z,6.52
2023-03-04T01:51:15.182Z,6.41
2023-03-04T01:54:18.049Z,6.30
2023-03-04T01:57:23.064Z,6.37
2023-03-04T02:00:30.440Z,6.33
2023-03-04T02:03:33.108Z,6.32
2023-03-04T02:06:38.152Z,6.31
2023-03-04T02:09:40.789Z,6.26
2023-03-04T02:12:43.504Z,6.27
2023-03-04T02:15:47.200Z,6.46
2023-03-04T02:18:49.976Z,6.39
2023-03-04T02:21:53.956Z,6.28
2023-03-04T02:25:01.482Z,6.19
2023-03-04T02:28:05.706Z,6.27
2023-03-04T02:31:12.057Z,6.40
2023-03-04T02:34:17.076Z,6.41
2023-03-04T02:37:21.609Z,6.32
2023-03-04T02:40:28.089Z,6.24
2023-03-04T02:43:32.198Z,6.44
2023-03-04T02:46:34.909Z,6.17
2023-03-04T02:49:39.503Z,6.29
2023-03-04T02:52:42.081Z,6.37
2023-03-04T02:55:44.768Z,6.40
2023-03-04T02:58:48.721Z,6.42
2023-03-04T03:01:52.020Z,6.52
2023-03-04T03:04:54.680Z,6.40
2023-03-04T03:07:57.415Z,6.33
2023-03-04T03:10:59.989Z,6.43
2023-03-04T03:14:04.354Z,6.37
2023-03-04T03:17:06.947Z,6.41
2023-03-04T03:20:10.782Z,6.39
2023-03-04T03:23:13.738Z,6.39
2023-03-04T03:26:16.932Z,6.43
2023-03-04T03:29:20.912Z,6.44
2023-03-04T03:32:23.606Z,6.29
2023-03-04T03:35:26.337Z,6.46
2023-03-04T03:38:29.147Z,6.46
2023-03-04T03:41:31.702Z,6.28
2023-03-04T03:44:35.758Z,6.52
2023-03-04T03:47:38.354Z,6.40
2023-03-04T03:50:40.979Z,6.50
2023-03-04T03:53:43.554Z,6.48
2023-03-04T03:56:46.186Z,6.57
2023-03-04T03:59:50.114Z,6.46
2023-03-04T04:02:53.655Z,6.55
2023-03-04T04:05:56.314Z,6.68
2023-03-04T04:08:58.918Z,6.44
2023-03-04T04:12:01.527Z,6.47
2023-03-04T04:15:06.524Z,6.37
2023-03-04T04:18:09.184Z,6.47
2023-03-04T04:21:11.760Z,6.30
2023-03-04T04:24:14.369Z,6.20
2023-03-04T04:27:16.987Z,6.26
2023-03-04T04:30:21.128Z,6.42
2023-03-04T04:33:23.825Z,6.37
2023-03-04T04:36:26.412Z,6.31
2023-03-04T04:39:28.982Z,6.35
2023-03-04T04:42:31.595Z,6.43
2023-03-04T04:45:35.817Z,6.34
2023-03-04T04:48:38.435Z,6.24
2023-03-04T04:51:41.302Z,6.40
2023-03-04T04:54:43.910Z,6.41
2023-03-04T04:57:46.489Z,6.38
2023-03-04T05:00:50.512Z,6.40
2023-03-04T05:03:55.183Z,6.43
2023-03-04T05:06:57.772Z,6.37
2023-03-04T05:10:00.359Z,6.48
2023-03-04T05:13:02.944Z,6.57
2023-03-04T05:16:08.286Z,6.49
2023-03-04T05:19:11.245Z,6.48
2023-03-04T05:22:13.868Z,6.55
2023-03-04T05:25:16.546Z,6.63
2023-03-04T05:28:19.498Z,6.72
2023-03-04T05:31:23.512Z,6.61
2023-03-04T05:34:26.090Z,6.64
2023-03-04T05:37:28.661Z,6.60
2023-03-04T05:40:31.288Z,6.58
2023-03-04T05:43:35.810Z,6.74
2023-03-04T05:46:39.860Z,6.78
2023-03-04T05:49:43.023Z,6.81
2023-03-04T05:52:45.613Z,6.78
2023-03-04T05:55:48.538Z,6.93
2023-03-04T05:58:51.103Z,7.27
2023-03-04T06:01:55.068Z,7.25
2023-03-04T06:04:57.756Z,7.10
2023-03-04T06:08:00.374Z,6.96
2023-03-04T06:11:04.893Z,6.76
2023-03-04T06:14:07.797Z,6.85
2023-03-04T06:17:11.807Z,6.75
2023-03-04T06:20:14.429Z,6.60
2023-03-04T06:23:17.353Z,6.79
2023-03-04T06:26:19.949Z,6.83
2023-03-04T06:29:23.318Z,6.70
2023-03-04T06:32:27.320Z,6.94
2023-03-04T06:35:29.944Z,6.86
2023-03-04T06:38:32.704Z,6.71
2023-03-04T06:41:36.308Z,6.55
2023-03-04T06:44:39.134Z,6.33
2023-03-04T06:47:44.543Z,6.33
2023-03-04T06:50:47.126Z,6.23
2023-03-04T06:53:49.719Z,6.20
2023-03-04T06:56:52.299Z,6.44
2023-03-04T06:59:54.908Z,6.48
2023-03-04T07:02:59.168Z,6.39
2023-03-04T07:06:01.753Z,6.41
2023-03-04T07:09:04.541Z,6.58
2023-03-04T07:12:07.326Z,6.48
2023-03-04T07:15:11.051Z,6.33
2023-03-04T07:18:14.993Z,6.37
2023-03-04T07:21:19.067Z,6.30
2023-03-04T07:24:21.799Z,6.40
2023-03-04T07:27:24.426Z,6.45
2023-03-04T07:30:27.146Z,6.58
2023-03-04T07:33:31.096Z,6.59
2023-03-04T07:36:35.212Z,6.38
2023-03-04T07:39:37.827Z,6.30
2023-03-04T07:42:40.430Z,6.41
2023-03-04T07:45:43.028Z,6.31
2023-03-04T07:48:46.963Z,6.39
2023-03-04T07:51:49.551Z,6.42
2023-03-04T07:54:52.170Z,6.38
2023-03-04T07:57:54.746Z,6.58
2023-03-04T08:00:57.478Z,6.31
2023-03-04T08:04:01.853Z,6.38
2023-03-04T08:07:04.465Z,6.13
2023-03-04T08:10:08.206Z,6.51
2023-03-04T08:13:11.140Z,6.52
2023-03-04T08:16:15.407Z,6.60
2023-03-04T08:19:19.584Z,6.46
2023-03-04T08:22:22.364Z,6.52
2023-03-04T08:25:24.985Z,6.43
2023-03-04T08:28:27.584Z,6.26
2023-03-04T08:31:30.434Z,6.38
2023-03-04T08:34:34.435Z,6.45
2023-03-04T08:37:37.130Z,6.31
2023-03-04T08:40:39.731Z,6.49
2023-03-04T08:43:42.717Z,6.34
2023-03-04T08:46:45.341Z,6.23
2023-03-04T08:49:49.282Z,6.27
2023-03-04T08:52:51.876Z,6.34
2023-03-04T08:55:54.492Z,6.36
2023-03-04T08:58:57.162Z,6.21
2023-03-04T09:01:59.765Z,5.95
2023-03-04T09:05:03.825Z,6.12
2023-03-04T09:08:06.775Z,5.99
2023-03-04T09:11:09.840Z,6.20
2023-03-04T09:14:12.433Z,6.31
2023-03-04T09:17:15.018Z,6.37
2023-03-04T09:20:19.693Z,6.02
2023-03-04T09:23:22.444Z,6.19
2023-03-04T09:26:27.126Z,6.33
2023-03-04T09:29:29.716Z,6.32
2023-03-04T09:32:32.317Z,6.31
2023-03-04T09:35:36.691Z,6.18
2023-03-04T09:38:40.098Z,6.44
2023-03-04T09:41:45.387Z,6.25
2023-03-04T09:44:48.619Z,6.37
2023-03-04T09:47:54.017Z,6.38
2023-03-04T09:51:12.045Z,6.33
2023-03-04T09:54:21.849Z,6.47
2023-03-04T09:57:30.902Z,6.47
2023-03-04T10:00:39.571Z,6.49
2023-03-04T10:03:48.245Z,6.32
2023-03-04T10:06:54.561Z,6.51
2023-03-04T10:10:03.406Z,6.40
2023-03-04T10:13:13.616Z,6.68
2023-03-04T10:16:21.319Z,6.85
2023-03-04T10:19:34.627Z,6.87
2023-03-04T10:22:43.124Z,6.54
2023-03-04T10:25:46.853Z,6.63
2023-03-04T10:28:50.248Z,6.72
2023-03-04T10:31:56.023Z,6.93
2023-03-04T10:34:58.789Z,6.97
2023-03-04T10:38:05.417Z,6.96
2023-03-04T10:41:13.979Z,6.91
2023-03-04T10:44:19.279Z,6.78
2023-03-04T10:47:25.141Z,6.79
2023-03-04T10:50:29.359Z,6.72
2023-03-04T10:53:38.721Z,6.58
2023-03-04T10:56:45.616Z,6.61
2023-03-04T10:59:53.304Z,6.74
2023-03-04T11:03:25.579Z,7.02
2023-03-04T11:06:31.384Z,7.04
2023-03-04T11:09:35.366Z,7.05
2023-03-04T11:12:38.168Z,6.83
2023-03-04T11:15:52.492Z,6.99
2023-03-04T11:18:58.987Z,6.89
2023-03-04T11:22:02.603Z,6.94
2023-03-04T11:25:08.967Z,7.05
2023-03-04T11:28:16.411Z,7.22
2023-03-04T11:31:22.561Z,6.88
2023-03-04T11:34:35.714Z,6.93
2023-03-04T11:37:43.885Z,7.00
2023-03-04T11:40:52.632Z,7.17
2023-03-04T11:43:55.305Z,7.15
2023-03-04T11:47:06.463Z,7.36
2023-03-04T11:50:17.524Z,7.22
2023-03-04T11:53:34.413Z,7.47
2023-03-04T11:56:44.351Z,7.58
2023-03-04T11:59:58.917Z,7.84
2023-03-04T12:03:22.791Z,7.90
2023-03-04T12:06:36.818Z,7.74
2023-03-04T12:09:50.415Z,7.65
2023-03-04T12:13:15.222Z,7.90
2023-03-04T12:16:31.440Z,8.05
2023-03-04T12:19:47.780Z,8.18
2023-03-04T12:22:55.590Z,8.22
2023-03-04T12:26:04.721Z,8.20
2023-03-04T12:29:16.808Z,8.26
2023-03-04T12:32:27.759Z,8.47
2023-03-04T12:35:39.473Z,8.72
2023-03-04T12:38:56.693Z,8.89
2023-03-04T12:42:08.511Z,8.80
2023-03-04T12:45:20.630Z,8.52
2023-03-04T12:48:31.446Z,8.57
2023-03-04T12:51:41.982Z,8.40
2023-03-04T12:54:47.565Z,8.81
2023-03-04T12:57:51.241Z,9.37
2023-03-04T13:01:04.396Z,9.24
2023-03-04T13:04:15.396Z,8.89
2023-03-04T13:07:28.449Z,8.43
2023-03-04T13:10:31.564Z,8.43
2023-03-04T13:13:36.747Z,8.79
2023-03-04T13:16:42.475Z,8.96
2023-03-04T13:19:58.053Z,8.43
2023-03-04T13:23:01.376Z,8.04
2023-03-04T13:26:21.343Z,8.48
2023-03-04T13:29:36.827Z,8.73
2023-03-04T13:32:42.668Z,8.73
2023-03-04T13:35:52.246Z,8.31
2023-03-04T13:39:00.365Z,8.22
2023-03-04T13:42:05.117Z,8.03
2023-03-04T13:45:33.757Z,7.93
2023-03-04T13:48:38.529Z,8.12
2023-03-04T13:51:44.874Z,7.90
2023-03-04T13:54:47.458Z,7.80
2023-03-04T13:57:51.240Z,7.85
2023-03-04T14:00:55.595Z,7.91
2023-03-04T14:04:00.198Z,8.14
2023-03-04T14:07:18.006Z,8.18
2023-03-04T14:10:23.987Z,8.21
2023-03-04T14:13:27.650Z,7.93
2023-03-04T14:16:33.370Z,7.79
2023-03-04T14:19:44.551Z,7.53
2023-03-04T14:22:47.140Z,7.58
2023-03-04T14:25:49.817Z,7.61
2023-03-04T14:28:57.230Z,7.42
2023-03-04T14:32:01.153Z,7.16
2023-03-04T14:35:08.105Z,6.99
2023-03-04T14:38:20.470Z,7.14
2023-03-04T14:41:28.352Z,7.16
2023-03-04T14:44:36.015Z,6.96
2023-03-04T14:47:45.211Z,6.98
2023-03-04T14:50:53.736Z,6.97
2023-03-04T14:53:57.294Z,6.98
2023-03-04T14:57:01.585Z,6.77
2023-03-04T15:00:25.388Z,6.99
2023-03-04T15:03:31.072Z,6.87
2023-03-04T15:06:36.563Z,6.98
2023-03-04T15:09:42.324Z,6.77
2023-03-04T15:12:52.659Z,6.85
2023-03-04T15:16:01.885Z,6.83
2023-03-04T15:19:06.690Z,6.70
2023-03-04T15:22:10.611Z,6.87
2023-03-04T15:25:15.348Z,6.91
2023-03-04T15:28:20.050Z,6.71
2023-03-04T15:31:25.673Z,6.77
2023-03-04T15:34:28.481Z,6.62
2023-03-04T15:37:32.523Z,6.62
2023-03-04T15:40:38.964Z,6.30
2023-03-04T15:43:41.578Z,6.55
2023-03-04T15:46:44.220Z,6.41
2023-03-04T15:49:47.718Z,6.39
2023-03-04T15:52:51.998Z,6.46
2023-03-04T15:55:55.092Z,6.22
2023-03-04T15:59:00.218Z,6.28
2023-03-04T16:02:02.860Z,6.23
2023-03-04T16:05:06.067Z,6.12
2023-03-04T16:08:13.885Z,6.26
2023-03-04T16:11:17.746Z,6.25
2023-03-04T16:14:20.393Z,6.43
2023-03-04T16:17:22.974Z,6.41
2023-03-04T16:20:29.020Z,6.12
2023-03-04T16:23:39.292Z,6.07
2023-03-04T16:26:42.082Z,6.26
2023-03-04T16:29:45.043Z,6.12
2023-03-04T16:32:48.001Z,6.18
2023-03-04T16:35:51.680Z,6.10
2023-03-04T16:38:58.543Z,6.27
2023-03-04T16:42:02.487Z,6.03
2023-03-04T16:45:05.612Z,6.03
2023-03-04T16:48:08.213Z,5.93
2023-03-04T16:51:16.346Z,5.95
2023-03-04T16:54:27.860Z,5.85
2023-03-04T16:57:31.478Z,5.99
2023-03-04T17:00:34.154Z,6.07
2023-03-04T17:03:36.762Z,5.99
2023-03-04T17:06:39.850Z,6.01
2023-03-04T17:09:43.852Z,6.03
2023-03-04T17:12:46.472Z,5.97
2023-03-04T17:15:49.080Z,5.87
2023-03-04T17:18:51.767Z,5.96
2023-03-04T17:21:54.405Z,5.80
2023-03-04T17:24:58.501Z,5.86
2023-03-04T17:28:01.105Z,5.74
2023-03-04T17:31:10.250Z,5.76
2023-03-04T17:34:13.373Z,5.69
2023-03-04T17:37:16.180Z,5.69
2023-03-04T17:40:20.205Z,5.75
2023-03-04T17:43:23.401Z,5.87
2023-03-04T17:46:27.837Z,5.83
2023-03-04T17:49:30.471Z,5.64
2023-03-04T17:52:33.260Z,5.70
2023-03-04T17:55:37.194Z,5.56
2023-03-04T17:58:40.315Z,5.76
2023-03-04T18:01:44.948Z,5.59
2023-03-04T18:04:48.819Z,5.17
2023-03-04T18:07:51.410Z,5.30
2023-03-04T18:10:55.468Z,5.29
2023-03-04T18:13:58.224Z,5.27
2023-03-04T18:17:00.876Z,5.25
2023-03-04T18:20:03.642Z,5.52
2023-03-04T18:23:06.260Z,5.46
2023-03-04T18:26:10.248Z,5.38
2023-03-04T18:29:12.844Z,5.17
2023-03-04T18:32:15.495Z,5.32
2023-03-04T18:35:19.467Z,5.36
2023-03-04T18:38:22.170Z,5.00
2023-03-04T18:41:27.793Z,4.95
2023-03-04T18:44:30.668Z,5.04
2023-03-04T18:47:35.002Z,5.00
2023-03-04T18:50:37.682Z,4.93
2023-03-04T18:53:40.332Z,4.97
2023-03-04T18:56:47.685Z,5.31
2023-03-04T18:59:53.615Z,5.19
2023-03-04T19:02:59.974Z,5.02
2023-03-04T19:06:02.615Z,5.12
2023-03-04T19:09:05.773Z,5.16
2023-03-04T19:12:09.792Z,4.81
2023-03-04T19:15:13.463Z,4.73
2023-03-04T19:18:16.059Z,4.51
2023-03-04T19:21:19.347Z,4.57
2023-03-04T19:24:22.024Z,4.49
2023-03-04T19:27:26.606Z,4.70
2023-03-04T19:30:29.431Z,4.90
2023-03-04T19:33:32.056Z,4.55
2023-03-04T19:36:34.629Z,4.55
2023-03-04T19:39:37.260Z,4.84
2023-03-04T19:42:41.279Z,4.58
2023-03-04T19:45:43.852Z,4.52
2023-03-04T19:48:49.110Z,4.69
2023-03-04T19:51:51.689Z,4.52
2023-03-04T19:54:54.468Z,4.50
2023-03-04T19:57:58.431Z,4.45
2023-03-04T20:01:00.989Z,4.24
2023-03-04T20:04:08.055Z,4.28
2023-03-04T20:07:10.696Z,4.27
2023-03-04T20:10:14.405Z,4.35
2023-03-04T20:13:18.382Z,4.36
2023-03-04T20:16:20.987Z,4.47
2023-03-04T20:19:23.571Z,4.45
2023-03-04T20:22:26.160Z,4.39
2023-03-04T20:25:31.895Z,4.49
2023-03-04T20:28:35.889Z,4.49
2023-03-04T20:31:39.493Z,4.58
2023-03-04T20:34:42.066Z,4.42
2023-03-04T20:37:44.907Z,4.35
2023-03-04T20:40:47.584Z,4.31
2023-03-04T20:43:51.537Z,4.23
2023-03-04T20:46:54.237Z,4.30
2023-03-04T20:49:56.846Z,4.37
2023-03-04T20:52:59.446Z,4.35
2023-03-04T20:56:03.525Z,4.20
2023-03-04T20:59:09.331Z,4.20
2023-03-04T21:02:15.525Z,4.10
2023-03-04T21:05:18.324Z,4.25
2023-03-04T21:08:20.953Z,4.35
2023-03-04T21:11:24.399Z,4.37
2023-03-04T21:14:30.162Z,4.44
2023-03-04T21:17:32.754Z,4.52
2023-03-04T21:20:35.327Z,4.52
2023-03-04T21:23:38.750Z,4.54
2023-03-04T21:26:42.978Z,4.51
2023-03-04T21:29:49.255Z,4.45
2023-03-04T21:32:52.486Z,4.32
2023-03-04T21:35:55.173Z,4.62
2023-03-04T21:38:57.790Z,4.81
2023-03-04T21:42:01.264Z,4.76
2023-03-04T21:45:06.462Z,4.79
2023-03-04T21:48:09.308Z,4.82
2023-03-04T21:51:14.903Z,4.85
2023-03-04T21:54:17.637Z,4.88
2023-03-04T21:57:20.498Z,4.67
2023-03-04T22:00:24.691Z,4.47
2023-03-04T22:03:27.612Z,4.63
2023-03-04T22:06:33.469Z,4.49
2023-03-04T22:09:36.047Z,4.55
2023-03-04T22:12:38.623Z,4.68
2023-03-04T22:15:45.276Z,4.62
2023-03-04T22:18:47.892Z,4.50
2023-03-04T22:21:51.281Z,4.27
2023-03-04T22:24:53.851Z,4.39
2023-03-04T22:27:57.018Z,4.13
2023-03-04T22:31:01.887Z,4.33
2023-03-04T22:34:07.365Z,4.43
2023-03-04T22:37:10.341Z,4.42
2023-03-04T22:40:15.188Z,4.31
2023-03-04T22:43:17.866Z,4.28
2023-03-04T22:46:24.314Z,4.42
2023-03-04T22:49:26.888Z,4.54
2023-03-04T22:52:29.525Z,4.49
2023-03-04T22:55:32.175Z,4.69
2023-03-04T22:58:35.059Z,4.66
2023-03-04T23:01:39.077Z,4.31
2023-03-04T23:04:43.057Z,4.26
2023-03-04T23:07:45.741Z,4.37
2023-03-04T23:10:48.307Z,4.47
2023-03-04T23:13:51.755Z,4.62
2023-03-04T23:16:55.765Z,4.27
2023-03-04T23:19:58.404Z,4.29
2023-03-04T23:23:01.145Z,4.31
2023-03-04T23:26:04.129Z,4.45
2023-03-04T23:29:08.879Z,4.47
2023-03-04T23:32:12.814Z,4.19
2023-03-04T23:35:15.468Z,4.25
2023-03-04T23:38:18.040Z,4.45
2023-03-04T23:41:22.593Z,4.37
2023-03-04T23:44:25.193Z,4.22
2023-03-04T23:47:29.426Z,4.52
2023-03-04T23:50:33.750Z,4.38
2023-03-04T23:53:38.912Z,4.20
2023-03-04T23:56:41.904Z,4.06
2023-03-04T23:59:44.546Z,4.09
